Time;durP1;ratioP1;P1;durP2;ratioP2;P2;SDS_P1;SDS_P2;PMS_P1;PMS_P2;Temp;Humidity;BMP_temperature;BMP_pressure;BME280_temperature;BME280_humidity;BME280_pressure;Samples;Min_cycle;Max_cycle;Signal;HPM_P1;HPM_P2
2022/01/03 00:01:14;;;;;;;;;;;;;;;9.88;87.55;97792.11;1746276;81;20229;-84
2022/01/03 00:03:42;;;;;;;;;;;;;;;9.86;87.56;97797.95;1746890;80;24556;-88
2022/01/03 00:06:14;;;;;;;;;;;;;;;9.84;87.61;97800.30;1745521;81;22096;-88
2022/01/03 00:08:38;;;;;;;;;;;;;;;9.82;87.64;97790.47;1747603;81;26195;-88
2022/01/03 00:11:11;;;;;;;;;;;;;;;9.79;87.69;97791.99;1741471;81;24583;-88
2022/01/03 00:13:43;;;;;;;;;;;;;;;9.77;87.73;97794.71;1738407;81;20337;-89
2022/01/03 00:16:10;;;;;;;;;;;;;;;9.77;87.78;97799.10;1741822;81;24468;-88
2022/01/03 00:18:36;;;;;;;;;;;;;;;9.76;87.83;97800.08;1752569;81;22048;-86
2022/01/03 00:21:05;;;;;;;;;;;;;;;9.74;87.89;97793.66;1744411;81;26068;-86
2022/01/03 00:23:38;;;;;;;;;;;;;;;9.73;87.92;97792.45;1740781;81;24667;-84
2022/01/03 00:26:06;;;;;;;;;;;;;;;9.71;87.98;97784.73;1750217;81;20283;-84
2022/01/03 00:28:34;;;;;;;;;;;;;;;9.69;88.02;97774.89;1743542;81;24407;-86
2022/01/03 00:31:00;;;;;;;;;;;;;;;9.69;88.04;97768.83;1748500;80;22715;-85
2022/01/03 00:33:28;;;;;;;;;;;;;;;9.68;88.09;97759.33;1748437;81;25962;-87
2022/01/03 00:36:10;;;;;;;;;;;;;;;9.64;88.12;97747.81;1742810;81;24474;-92
2022/01/03 00:38:36;;;;;;;;;;;;;;;9.61;88.18;97749.34;1742251;81;20212;-92
2022/01/03 00:41:13;;;;;;;;;;;;;;;9.61;88.24;97744.12;1742519;81;24367;-92
2022/01/03 00:43:53;;;;;;;;;;;;;;;9.58;88.30;97746.98;1741892;81;21992;-93
2022/01/03 00:46:19;;;;;;;;;;;;;;;9.57;88.35;97750.53;1737740;81;25957;-89
2022/01/03 00:48:45;;;;;;;;;;;;;;;9.54;88.41;97740.33;1747481;81;26041;-88
2022/01/03 00:51:19;;;;;;;;;;;;;;;9.52;88.45;97748.75;1742205;81;20215;-88
2022/01/03 00:53:44;;;;;;;;;;;;;;;9.51;88.51;97745.77;1749746;80;25230;-84
2022/01/03 00:56:13;;;;;;;;;;;;;;;9.51;88.59;97756.22;1752512;81;21896;-84
2022/01/03 00:58:57;;;;;;;;;;;;;;;9.50;88.65;97754.55;1731087;81;25987;-84
2022/01/03 01:01:24;;;;;;;;;;;;;;;9.48;88.71;97760.86;1711343;83;24572;-84
2022/01/03 01:03:51;;;;;;;;;;;;;;;9.48;88.80;97752.55;1711677;84;20245;-89
2022/01/03 01:06:33;;;;;;;;;;;;;;;9.48;88.85;97743.41;1683285;84;24571;-88
2022/01/03 01:08:51;;;;;;;;;;;;;;;9.47;88.91;97746.97;1688625;82;22890;-89
2022/01/03 01:11:20;;;;;;;;;;;;;;;9.47;88.96;97737.83;1739727;81;26220;-86
2022/01/03 01:13:46;;;;;;;;;;;;;;;9.50;89.09;97741.50;1718037;82;24410;-86
2022/01/03 01:16:14;;;;;;;;;;;;;;;9.45;89.19;97725.81;1741956;81;20465;-86
2022/01/03 01:18:41;;;;;;;;;;;;;;;9.52;89.28;97738.30;1745464;82;24862;-86
2022/01/03 01:21:07;;;;;;;;;;;;;;;9.54;89.37;97732.50;1732728;81;22092;-86
2022/01/03 01:23:39;;;;;;;;;;;;;;;9.54;89.43;97727.27;1739682;80;26774;-88
2022/01/03 01:28:51;;;;;;;;;;;;;;;9.54;89.56;97710.77;1744785;80;20184;-88
2022/01/03 01:31:18;;;;;;;;;;;;;;;9.54;89.65;97720.74;1740957;82;24414;-88
2022/01/03 01:33:45;;;;;;;;;;;;;;;9.55;89.70;97732.83;1736196;81;22079;-88
2022/01/03 01:36:47;;;;;;;;;;;;;;;9.54;89.75;97720.74;1745337;82;26032;-91
2022/01/03 01:39:16;;;;;;;;;;;;;;;9.54;89.79;97724.66;1743754;82;24551;-87
2022/01/03 01:41:44;;;;;;;;;;;;;;;9.53;89.84;97736.05;1738328;81;20547;-84
2022/01/03 01:44:24;;;;;;;;;;;;;;;9.54;89.90;97731.19;1744084;81;24389;-91
2022/01/03 01:46:57;;;;;;;;;;;;;;;9.55;89.96;97735.44;1743685;81;22123;-85
2022/01/03 01:49:25;;;;;;;;;;;;;;;9.56;90.02;97727.97;1740744;82;26039;-85
2022/01/03 01:52:02;;;;;;;;;;;;;;;9.58;90.07;97723.94;1708261;82;20713;-85
2022/01/03 01:54:31;;;;;;;;;;;;;;;9.58;90.15;97701.27;1740218;82;20349;-86
2022/01/03 01:57:08;;;;;;;;;;;;;;;9.60;90.22;97694.13;1743635;82;24407;-92
2022/01/03 01:59:39;;;;;;;;;;;;;;;9.60;90.26;97686.28;1726028;82;22047;-91
2022/01/03 02:02:06;;;;;;;;;;;;;;;9.60;90.31;97686.78;1688047;84;26094;-85
2022/01/03 02:04:40;;;;;;;;;;;;;;;9.62;90.37;97687.48;1717632;83;24429;-85
2022/01/03 02:07:20;;;;;;;;;;;;;;;9.62;90.43;97687.01;1713632;83;20304;-87
2022/01/03 02:09:52;;;;;;;;;;;;;;;9.57;90.44;97662.19;1719729;83;24490;-89
2022/01/03 02:12:19;;;;;;;;;;;;;;;9.66;90.52;97664.91;1715036;83;22057;-91
2022/01/03 02:14:47;;;;;;;;;;;;;;;9.68;90.57;97668.72;1723129;83;25966;-88
2022/01/03 02:17:13;;;;;;;;;;;;;;;9.69;90.60;97652.57;1701677;83;24386;-86
2022/01/03 02:19:39;;;;;;;;;;;;;;;9.69;90.67;97653.87;1715002;83;20308;-89
2022/01/03 02:22:10;;;;;;;;;;;;;;;9.70;90.70;97647.70;1720376;83;24519;-90
2022/01/03 02:24:36;;;;;;;;;;;;;;;9.69;90.73;97641.64;1715401;83;22006;-85
2022/01/03 02:27:02;;;;;;;;;;;;;;;9.71;90.76;97638.41;1719463;83;25933;-88
2022/01/03 02:29:28;;;;;;;;;;;;;;;9.73;90.81;97644.36;1718361;83;24415;-91
2022/01/03 02:31:57;;;;;;;;;;;;;;;9.75;90.81;97632.49;1718602;83;20219;-85
2022/01/03 02:34:27;;;;;;;;;;;;;;;9.76;90.83;97624.55;1719902;83;20815;-90
2022/01/03 02:36:54;;;;;;;;;;;;;;;9.78;90.86;97630.45;1719343;83;22727;-87
2022/01/03 02:39:20;;;;;;;;;;;;;;;9.81;90.88;97624.17;1721334;83;25973;-88
2022/01/03 02:41:46;;;;;;;;;;;;;;;9.82;90.89;97625.84;1722478;83;24617;-84
2022/01/03 02:44:16;;;;;;;;;;;;;;;9.84;90.92;97619.52;1718536;83;20250;-84
2022/01/03 02:46:49;;;;;;;;;;;;;;;9.86;90.91;97620.71;1714445;83;24612;-91
2022/01/03 02:49:21;;;;;;;;;;;;;;;9.87;90.88;97617.95;1717704;81;22629;-91
2022/01/03 02:51:47;;;;;;;;;;;;;;;9.91;90.86;97619.86;1719922;83;26146;-87
2022/01/03 02:54:14;;;;;;;;;;;;;;;9.90;90.82;97615.11;1714071;83;24422;-87
2022/01/03 02:56:42;;;;;;;;;;;;;;;9.92;90.79;97609.30;1718327;83;20225;-84
2022/01/03 02:59:21;;;;;;;;;;;;;;;9.93;90.81;97612.24;1723671;81;24302;-91
2022/01/03 03:01:48;;;;;;;;;;;;;;;9.95;90.75;97617.35;1740659;81;22077;-84
2022/01/03 03:04:15;;;;;;;;;;;;;;;9.95;90.71;97613.43;1739333;81;25549;-87
2022/01/03 03:06:41;;;;;;;;;;;;;;;9.95;90.66;97605.12;1735707;81;24602;-84
2022/01/03 03:09:07;;;;;;;;;;;;;;;9.98;90.59;97610.08;1741273;81;20261;-84
2022/01/03 03:11:35;;;;;;;;;;;;;;;9.99;90.50;97622.20;1743879;81;24547;-84
2022/01/03 03:14:02;;;;;;;;;;;;;;;10.00;90.45;97611.28;1744846;81;21381;-85
2022/01/03 03:16:28;;;;;;;;;;;;;;;10.00;90.36;97601.66;1742929;81;26017;-85
2022/01/03 03:18:55;;;;;;;;;;;;;;;10.01;90.26;97602.48;1736627;81;24582;-84
2022/01/03 03:21:23;;;;;;;;;;;;;;;9.99;90.17;97597.84;1741096;80;20342;-84
2022/01/03 03:23:49;;;;;;;;;;;;;;;9.99;90.11;97594.76;1734688;81;24578;-85
2022/01/03 03:26:21;;;;;;;;;;;;;;;9.98;90.01;97583.14;1745626;81;22203;-85
2022/01/03 03:28:47;;;;;;;;;;;;;;;9.97;89.92;97584.92;1747414;81;26033;-89
2022/01/03 03:31:13;;;;;;;;;;;;;;;9.96;89.82;97585.87;1739180;81;24502;-88
2022/01/03 03:33:39;;;;;;;;;;;;;;;9.95;89.73;97577.67;1743294;81;20229;-88
2022/01/03 03:36:05;;;;;;;;;;;;;;;9.95;89.62;97572.92;1735880;81;24501;-88
2022/01/03 03:38:31;;;;;;;;;;;;;;;9.95;89.56;97567.70;1720444;82;21932;-88
2022/01/03 03:40:58;;;;;;;;;;;;;;;9.93;89.52;97576.13;1721338;82;26028;-88
2022/01/03 03:43:24;;;;;;;;;;;;;;;9.94;89.44;97569.47;1730097;82;24458;-92
2022/01/03 03:46:07;;;;;;;;;;;;;;;9.94;89.39;97562.94;1737717;82;20188;-93
2022/01/03 03:48:36;;;;;;;;;;;;;;;9.95;89.30;97558.55;1725720;82;24388;-92
2022/01/03 03:51:08;;;;;;;;;;;;;;;9.94;89.24;97549.04;1723321;82;21964;-92
2022/01/03 03:53:34;;;;;;;;;;;;;;;9.95;89.20;97538.94;1726218;82;26006;-91
2022/01/03 03:56:00;;;;;;;;;;;;;;;9.94;89.11;97554.27;1725599;82;24468;-91
2022/01/03 03:58:44;;;;;;;;;;;;;;;9.94;89.02;97555.58;1723499;82;20277;-91
2022/01/03 04:01:10;;;;;;;;;;;;;;;9.94;88.94;97551.66;1704331;83;24485;-91
2022/01/03 04:03:36;;;;;;;;;;;;;;;9.92;88.88;97553.58;1728482;81;22255;-92
2022/01/03 04:06:02;;;;;;;;;;;;;;;9.93;88.84;97551.30;1705724;83;25995;-92
2022/01/03 04:08:37;;;;;;;;;;;;;;;9.92;88.79;97541.34;1707543;83;24522;-93
2022/01/03 04:11:07;;;;;;;;;;;;;;;9.93;88.74;97548.69;1703796;83;20169;-91
2022/01/03 04:13:38;;;;;;;;;;;;;;;9.93;88.67;97545.59;1712594;83;24589;-92
2022/01/03 04:16:04;;;;;;;;;;;;;;;9.94;88.60;97547.73;1709978;83;22043;-91
2022/01/03 04:18:30;;;;;;;;;;;;;;;9.94;88.56;97540.72;1707345;82;26014;-88
2022/01/03 04:20:56;;;;;;;;;;;;;;;9.96;88.51;97530.16;1710194;83;24704;-85
2022/01/03 04:23:47;;;;;;;;;;;;;;;9.97;88.48;97533.95;1711023;83;20236;-91
2022/01/03 04:26:13;;;;;;;;;;;;;;;9.99;88.43;97525.97;1707562;82;24541;-87
2022/01/03 04:28:39;;;;;;;;;;;;;;;9.99;88.37;97537.26;1704637;83;21975;-91
2022/01/03 04:31:06;;;;;;;;;;;;;;;9.99;88.35;97538.56;1709194;83;26044;-91
2022/01/03 04:33:39;;;;;;;;;;;;;;;9.99;88.30;97550.33;1709587;83;25052;-84
2022/01/03 04:36:05;;;;;;;;;;;;;;;9.99;88.26;97542.48;1707789;82;20337;-84
2022/01/03 04:38:32;;;;;;;;;;;;;;;9.99;88.20;97538.56;1711351;82;24392;-84
2022/01/03 04:41:00;;;;;;;;;;;;;;;9.98;88.15;97534.79;1711547;83;22051;-84
2022/01/03 04:43:30;;;;;;;;;;;;;;;9.97;88.11;97525.28;1730047;83;26756;-87
2022/01/03 04:45:58;;;;;;;;;;;;;;;9.97;88.09;97532.66;1703376;83;20164;-87
2022/01/03 04:48:24;;;;;;;;;;;;;;;9.90;88.06;97516.28;1731579;83;20269;-89
2022/01/03 04:50:51;;;;;;;;;;;;;;;9.98;88.10;97524.34;1731965;81;24600;-91
2022/01/03 04:53:17;;;;;;;;;;;;;;;9.97;88.08;97518.75;1731991;83;21965;-87
2022/01/03 04:55:44;;;;;;;;;;;;;;;9.97;88.10;97507.82;1732494;81;25821;-85
2022/01/03 04:58:10;;;;;;;;;;;;;;;9.96;88.13;97509.25;1731679;81;24405;-87
2022/01/03 05:00:38;;;;;;;;;;;;;;;9.95;88.17;97511.50;1745251;81;20330;-88
2022/01/03 05:03:10;;;;;;;;;;;;;;;9.94;88.18;97513.76;1759989;81;24167;-89
2022/01/03 05:05:43;;;;;;;;;;;;;;;9.93;88.16;97510.78;1753942;81;22146;-92
2022/01/03 05:08:29;;;;;;;;;;;;;;;9.92;88.19;97507.38;1753855;81;26637;-91
2022/01/03 05:11:00;;;;;;;;;;;;;;;9.92;88.19;97499.53;1746346;81;25419;-88
2022/01/03 05:13:37;;;;;;;;;;;;;;;9.91;88.24;97493.95;1755720;81;20167;-92
2022/01/03 05:16:03;;;;;;;;;;;;;;;9.91;88.29;97485.27;1753996;81;24595;-89
2022/01/03 05:18:36;;;;;;;;;;;;;;;9.90;88.33;97479.22;1738423;80;22061;-91
2022/01/03 05:21:15;;;;;;;;;;;;;;;9.92;88.37;97479.09;1730867;82;26129;-87
2022/01/03 05:23:48;;;;;;;;;;;;;;;9.92;88.39;97477.79;1720654;82;25358;-88
2022/01/03 05:26:14;;;;;;;;;;;;;;;9.92;88.46;97479.09;1738009;82;20472;-87
2022/01/03 05:28:40;;;;;;;;;;;;;;;9.90;88.48;97473.98;1728137;81;24523;-88
2022/01/03 05:31:08;;;;;;;;;;;;;;;9.90;88.49;97471.85;1734919;81;22014;-88
2022/01/03 05:33:35;;;;;;;;;;;;;;;9.92;88.51;97472.56;1736770;82;26145;-87
2022/01/03 05:36:01;;;;;;;;;;;;;;;9.93;88.53;97467.66;1725736;82;25143;-84
2022/01/03 05:38:27;;;;;;;;;;;;;;;9.93;88.54;97467.19;1754290;81;20293;-91
2022/01/03 05:40:53;;;;;;;;;;;;;;;9.92;88.59;97465.56;1741267;82;24520;-88
2022/01/03 05:43:19;;;;;;;;;;;;;;;9.93;88.62;97463.74;1719379;82;21990;-88
2022/01/03 05:45:45;;;;;;;;;;;;;;;9.92;88.64;97471.26;1727139;82;26037;-89
2022/01/03 05:48:11;;;;;;;;;;;;;;;9.93;88.71;97472.41;1725234;82;24669;-88
2022/01/03 05:50:38;;;;;;;;;;;;;;;9.93;88.77;97471.58;1726793;82;20289;-92
2022/01/03 05:53:04;;;;;;;;;;;;;;;9.93;88.82;97480.26;1724595;82;24519;-87
2022/01/03 05:55:30;;;;;;;;;;;;;;;9.94;88.85;97478.00;1723895;82;21987;-88
2022/01/03 05:57:56;;;;;;;;;;;;;;;9.94;88.89;97470.16;1723482;82;20991;-88
2022/01/03 06:00:24;;;;;;;;;;;;;;;9.93;88.96;97464.58;1719327;82;24502;-92
2022/01/03 06:02:55;;;;;;;;;;;;;;;9.91;89.05;97468.29;1717135;81;20244;-89
2022/01/03 06:05:39;;;;;;;;;;;;;;;9.84;89.22;97460.59;1713722;83;24562;-84
2022/01/03 06:07:49;;;;;;;;;;;;;;;9.85;89.39;97467.01;1710887;83;23060;-84
2022/01/03 06:10:21;;;;;;;;;;;;;;;9.82;89.57;97469.05;1720681;82;26615;-89
2022/01/03 06:12:48;;;;;;;;;;;;;;;9.80;89.69;97468.34;1717952;82;24467;-85
2022/01/03 06:15:15;;;;;;;;;;;;;;;9.78;89.85;97464.54;1718920;82;20461;-88
2022/01/03 06:17:42;;;;;;;;;;;;;;;9.78;89.97;97464.54;1721246;82;24680;-88
2022/01/03 06:20:15;;;;;;;;;;;;;;;9.78;90.07;97457.17;1701837;82;22008;-92
2022/01/03 06:22:49;;;;;;;;;;;;;;;9.80;90.19;97459.20;1715396;82;26079;-91
2022/01/03 06:25:32;;;;;;;;;;;;;;;9.80;90.30;97448.27;1721259;82;24494;-92
2022/01/03 06:27:58;;;;;;;;;;;;;;;9.80;90.43;97450.88;1719087;82;20196;-84
2022/01/03 06:30:25;;;;;;;;;;;;;;;9.82;90.52;97459.91;1721227;82;24535;-89
2022/01/03 06:32:54;;;;;;;;;;;;;;;9.82;90.60;97452.88;1731988;81;21969;-85
2022/01/03 06:35:20;;;;;;;;;;;;;;;9.84;90.69;97457.50;1710412;82;26058;-84
2022/01/03 06:37:46;;;;;;;;;;;;;;;9.87;90.79;97456.44;1725505;82;20290;-84
2022/01/03 06:40:12;;;;;;;;;;;;;;;9.89;90.82;97457.95;1735254;82;20440;-85
2022/01/03 06:42:42;;;;;;;;;;;;;;;9.91;90.91;97449.99;1712687;82;24748;-85
2022/01/03 06:45:10;;;;;;;;;;;;;;;9.91;90.98;97449.99;1729008;82;22068;-84
2022/01/03 06:47:36;;;;;;;;;;;;;;;9.93;91.02;97458.52;1715800;83;26033;-85
2022/01/03 06:50:03;;;;;;;;;;;;;;;9.90;91.08;97479.22;1724392;81;24575;-85
2022/01/03 06:52:29;;;;;;;;;;;;;;;9.88;91.14;97482.89;1729945;82;20177;-85
2022/01/03 06:54:56;;;;;;;;;;;;;;;9.88;91.18;97491.56;1731355;82;25376;-85
2022/01/03 06:57:22;;;;;;;;;;;;;;;9.87;91.25;97499.05;1717085;82;22026;-85
2022/01/03 06:59:49;;;;;;;;;;;;;;;9.86;91.31;97497.89;1730883;82;21681;-85
2022/01/03 07:02:15;;;;;;;;;;;;;;;9.83;91.36;97517.72;1733363;82;24471;-85
2022/01/03 07:04:41;;;;;;;;;;;;;;;9.81;91.42;97512.64;1730532;82;20401;-85
2022/01/03 07:07:07;;;;;;;;;;;;;;;9.80;91.46;97494.47;1726872;82;24588;-85
2022/01/03 07:09:33;;;;;;;;;;;;;;;9.77;91.51;97498.63;1735995;82;21409;-84
2022/01/03 07:11:59;;;;;;;;;;;;;;;9.74;91.54;97516.70;1736352;81;26027;-85
2022/01/03 07:19:42;;;;;;;;;;;;;;;9.69;91.61;97525.86;1712891;83;24662;-86
2022/01/03 07:22:09;;;;;;;;;;;;;;;9.69;91.63;97525.86;1704906;83;22253;-87
2022/01/03 07:24:36;;;;;;;;;;;;;;;9.65;91.66;97549.60;1703494;84;26133;-87
2022/01/03 07:27:02;;;;;;;;;;;;;;;9.63;91.71;97551.53;1680287;83;24392;-86
2022/01/03 07:29:28;;;;;;;;;;;;;;;9.62;91.79;97558.17;1680741;84;20301;-87
2022/01/03 07:31:54;;;;;;;;;;;;;;;9.58;91.86;97570.66;1704575;83;24489;-87
2022/01/03 07:34:21;;;;;;;;;;;;;;;9.56;91.91;97579.08;1704906;84;22145;-87
2022/01/03 07:36:47;;;;;;;;;;;;;;;9.55;91.98;97582.64;1686923;84;26075;-87
2022/01/03 07:39:13;;;;;;;;;;;;;;;9.52;92.07;97582.89;1708863;83;20428;-87
2022/01/03 07:41:39;;;;;;;;;;;;;;;9.48;92.14;97585.41;1691293;84;20253;-87
2022/01/03 07:44:05;;;;;;;;;;;;;;;9.47;92.21;97582.43;1698720;84;20234;-86
2022/01/03 07:46:31;;;;;;;;;;;;;;;9.45;92.36;97579.09;1702250;84;20832;-86
2022/01/03 07:48:58;;;;;;;;;;;;;;;9.42;92.46;97583.27;1701396;84;25992;-87
2022/01/03 07:51:24;;;;;;;;;;;;;;;9.38;92.58;97577.91;1705614;84;24398;-87
2022/01/03 07:53:50;;;;;;;;;;;;;;;9.38;92.73;97578.41;1704581;84;20245;-86
2022/01/03 07:56:18;;;;;;;;;;;;;;;9.37;92.87;97590.64;1699678;84;24436;-86
2022/01/03 07:58:44;;;;;;;;;;;;;;;9.36;93.01;97585.53;1673178;85;22001;-86
2022/01/03 08:01:10;;;;;;;;;;;;;;;9.34;93.17;97589.55;1667139;84;27027;-86
2022/01/03 08:03:37;;;;;;;;;;;;;;;9.33;93.33;97587.89;1695632;84;24471;-86
2022/01/03 08:06:03;;;;;;;;;;;;;;;9.32;93.51;97609.75;1707157;82;20212;-86
2022/01/03 08:08:29;;;;;;;;;;;;;;;9.31;93.69;97607.25;1693124;84;25242;-86
2022/01/03 08:10:55;;;;;;;;;;;;;;;9.30;93.86;97602.97;1693564;84;20254;-86
2022/01/03 08:13:21;;;;;;;;;;;;;;;9.28;94.07;97608.30;1700902;84;25980;-85
2022/01/03 08:15:47;;;;;;;;;;;;;;;9.27;94.23;97606.67;1695143;83;24495;-86
2022/01/03 08:18:13;;;;;;;;;;;;;;;9.28;94.40;97614.00;1684476;84;20506;-86
2022/01/03 08:20:40;;;;;;;;;;;;;;;9.26;94.61;97618.53;1697189;84;24608;-86
2022/01/03 08:23:07;;;;;;;;;;;;;;;9.21;94.88;97618.42;1701392;84;22592;-86
2022/01/03 08:25:37;;;;;;;;;;;;;;;9.14;95.21;97617.22;1696956;84;26085;-86
2022/01/03 08:28:01;;;;;;;;;;;;;;;9.10;95.54;97625.41;1707901;84;24776;-86
2022/01/03 08:30:27;;;;;;;;;;;;;;;9.06;95.86;97621.34;1698399;84;20207;-87
2022/01/03 08:32:53;;;;;;;;;;;;;;;9.05;96.23;97624.94;1704830;84;24595;-86
2022/01/03 08:35:20;;;;;;;;;;;;;;;9.05;96.56;97617.10;1699726;84;22106;-86
2022/01/03 08:37:46;;;;;;;;;;;;;;;9.08;96.90;97621.60;1704880;84;25954;-85
2022/01/03 08:40:12;;;;;;;;;;;;;;;9.12;97.24;97611.75;1709228;84;20316;-86
2022/01/03 08:42:38;;;;;;;;;;;;;;;9.17;97.57;97612.22;1701527;84;20585;-86
2022/01/03 08:45:05;;;;;;;;;;;;;;;9.21;97.84;97613.67;1689609;84;24631;-86
2022/01/03 08:47:31;;;;;;;;;;;;;;;9.25;98.12;97613.78;1707534;84;21932;-85
2022/01/03 08:49:57;;;;;;;;;;;;;;;9.24;98.32;97607.73;1689177;83;26039;-86
2022/01/03 08:52:23;;;;;;;;;;;;;;;9.25;98.48;97611.17;1698966;84;20808;-86
2022/01/03 08:54:49;;;;;;;;;;;;;;;9.26;98.63;97611.53;1701187;84;20301;-85
2022/01/03 08:57:15;;;;;;;;;;;;;;;9.28;98.75;97610.08;1696852;83;24527;-86
2022/01/03 08:59:41;;;;;;;;;;;;;;;9.30;98.91;97602.50;1707221;83;22019;-85
2022/01/03 09:02:14;;;;;;;;;;;;;;;9.31;99.05;97592.89;1697264;84;26572;-91
2022/01/03 09:04:40;;;;;;;;;;;;;;;9.31;99.20;97596.34;1700111;84;24485;-92
2022/01/03 09:07:06;;;;;;;;;;;;;;;9.32;99.34;97610.23;1696780;84;20266;-85
2022/01/03 09:09:34;;;;;;;;;;;;;;;9.30;99.50;97605.11;1697042;84;24364;-85
2022/01/03 09:12:00;;;;;;;;;;;;;;;9.31;99.64;97621.14;1695250;84;22233;-85
2022/01/03 09:14:26;;;;;;;;;;;;;;;9.31;99.77;97621.14;1701189;84;26115;-86
2022/01/03 09:16:52;;;;;;;;;;;;;;;9.34;99.89;97622.66;1696472;84;24391;-89
2022/01/03 09:19:18;;;;;;;;;;;;;;;9.38;100.00;97613.16;1701295;84;20917;-90
2022/01/03 09:21:58;;;;;;;;;;;;;;;9.47;100.00;97617.69;1705867;84;24624;-90
2022/01/03 09:24:29;;;;;;;;;;;;;;;9.54;100.00;97611.52;1700165;82;22707;-91
2022/01/03 09:29:34;;;;;;;;;;;;;;;9.51;100.00;97615.66;1697807;84;24821;-89
2022/01/03 09:32:00;;;;;;;;;;;;;;;9.52;100.00;97601.18;1699207;84;20155;-89
2022/01/03 09:34:26;;;;;;;;;;;;;;;9.54;100.00;97597.98;1698302;84;24549;-89
2022/01/03 09:36:52;;;;;;;;;;;;;;;9.58;100.00;97601.17;1695737;84;22011;-89
2022/01/03 09:39:20;;;;;;;;;;;;;;;9.61;100.00;97611.36;1701856;84;26078;-90
2022/01/03 09:42:08;;;;;;;;;;;;;;;9.70;100.00;97617.19;1700887;82;24556;-90
2022/01/03 09:44:34;;;;;;;;;;;;;;;9.76;100.00;97607.56;1691701;84;20287;-85
2022/01/03 09:47:02;;;;;;;;;;;;;;;9.81;100.00;97612.41;1698630;84;24484;-85
2022/01/03 09:49:30;;;;;;;;;;;;;;;9.85;100.00;97594.22;1699712;82;22234;-85
2022/01/03 09:51:57;;;;;;;;;;;;;;;9.88;100.00;97605.25;1700080;84;26753;-89
2022/01/03 09:54:26;;;;;;;;;;;;;;;9.96;100.00;97595.50;1700164;84;24558;-89
2022/01/03 09:56:53;;;;;;;;;;;;;;;10.03;100.00;97591.44;1698146;82;20263;-89
2022/01/03 09:59:19;;;;;;;;;;;;;;;10.06;100.00;97605.08;1692927;84;24539;-91
2022/01/03 10:01:45;;;;;;;;;;;;;;;10.05;100.00;97601.28;1700596;84;22238;-84
2022/01/03 10:04:15;;;;;;;;;;;;;;;10.00;99.84;97600.82;1696942;82;26925;-84
2022/01/03 10:06:41;;;;;;;;;;;;;;;9.97;99.51;97600.61;1698757;84;24702;-84
2022/01/03 10:09:07;;;;;;;;;;;;;;;9.96;99.25;97608.56;1672663;84;20361;-84
2022/01/03 10:11:33;;;;;;;;;;;;;;;9.97;99.07;97603.70;1701155;84;24685;-84
2022/01/03 10:14:01;;;;;;;;;;;;;;;9.95;98.86;97599.06;1691333;83;21961;-90
2022/01/03 10:16:32;;;;;;;;;;;;;;;9.91;98.62;97593.73;1703963;82;26007;-90
2022/01/03 10:18:56;;;;;;;;;;;;;;;9.88;98.43;97600.02;1694413;82;24586;-90
2022/01/03 10:21:29;;;;;;;;;;;;;;;9.87;98.19;97602.27;1703877;84;20243;-91
2022/01/03 10:23:55;;;;;;;;;;;;;;;9.83;97.93;97594.81;1658606;84;24598;-91
2022/01/03 10:26:26;;;;;;;;;;;;;;;9.80;97.67;97595.06;1696902;84;20325;-90
2022/01/03 10:29:14;;;;;;;;;;;;;;;9.78;97.46;97595.66;1692272;84;25972;-91
2022/01/03 10:31:41;;;;;;;;;;;;;;;9.82;97.32;97594.48;1699055;84;24433;-91
2022/01/03 10:34:09;;;;;;;;;;;;;;;9.85;97.18;97597.67;1696849;84;20530;-91
2022/01/03 10:36:36;;;;;;;;;;;;;;;9.88;97.09;97586.13;1708623;84;24603;-91
2022/01/03 10:39:12;;;;;;;;;;;;;;;9.87;96.94;97583.18;1698630;84;21986;-90
2022/01/03 10:41:41;;;;;;;;;;;;;;;9.88;96.79;97586.13;1702449;84;26245;-91
2022/01/03 10:44:09;;;;;;;;;;;;;;;9.87;96.66;97588.41;1693214;84;24442;-91
2022/01/03 10:46:36;;;;;;;;;;;;;;;9.89;96.51;97580.78;1696051;84;20692;-90
2022/01/03 10:49:16;;;;;;;;;;;;;;;9.90;96.44;97572.47;1681245;84;24922;-92
2022/01/03 10:51:42;;;;;;;;;;;;;;;9.90;96.29;97583.75;1697237;84;21998;-91
2022/01/03 10:54:09;;;;;;;;;;;;;;;9.92;96.19;97577.10;1702648;84;26158;-90
2022/01/03 10:56:40;;;;;;;;;;;;;;;9.93;96.08;97566.50;1697089;84;24395;-91
2022/01/03 10:59:10;;;;;;;;;;;;;;;9.93;95.94;97566.50;1702562;84;20219;-91
2022/01/03 11:01:37;;;;;;;;;;;;;;;9.95;95.82;97559.38;1690648;84;24523;-91
2022/01/03 11:04:04;;;;;;;;;;;;;;;9.96;95.62;97566.74;1696281;84;22066;-91
2022/01/03 11:11:43;;;;;;;;;;;;;;;10.05;95.23;97569.44;1703049;84;20500;-86
2022/01/03 11:14:10;;;;;;;;;;;;;;;10.10;95.21;97565.13;1705322;84;24771;-88
2022/01/03 11:16:39;;;;;;;;;;;;;;;10.11;95.10;97567.27;1707186;84;22132;-88
2022/01/03 11:19:06;;;;;;;;;;;;;;;10.14;94.96;97570.96;1698228;84;26056;-89
2022/01/03 11:21:37;;;;;;;;;;;;;;;10.14;94.84;97582.25;1695978;84;25223;-89
2022/01/03 11:24:04;;;;;;;;;;;;;;;10.10;94.72;97587.36;1693540;84;20615;-90
2022/01/03 11:26:33;;;;;;;;;;;;;;;10.03;94.67;97603.20;1695118;84;24603;-89
2022/01/03 11:29:00;;;;;;;;;;;;;;;9.89;94.65;97626.98;1689764;84;22083;-90
2022/01/03 11:31:28;;;;;;;;;;;;;;;9.69;94.69;97612.08;1678867;84;26035;-89
2022/01/03 11:33:54;;;;;;;;;;;;;;;9.46;94.73;97613.88;1680974;84;24436;-89
2022/01/03 11:36:22;;;;;;;;;;;;;;;9.30;94.81;97622.08;1688313;84;20244;-88
2022/01/03 11:38:48;;;;;;;;;;;;;;;9.23;95.02;97617.80;1689497;84;24591;-86
2022/01/03 11:41:15;;;;;;;;;;;;;;;9.17;95.26;97620.88;1687429;84;22803;-91
2022/01/03 11:43:43;;;;;;;;;;;;;;;9.12;95.51;97616.97;1693152;84;26186;-89
2022/01/03 11:46:10;;;;;;;;;;;;;;;9.07;95.71;97619.94;1689784;84;25181;-89
2022/01/03 11:48:36;;;;;;;;;;;;;;;9.05;95.98;97618.41;1689424;84;20492;-89
2022/01/03 11:51:04;;;;;;;;;;;;;;;9.03;96.21;97608.55;1681520;84;24518;-89
2022/01/03 11:53:32;;;;;;;;;;;;;;;9.04;96.47;97603.22;1686625;84;22222;-90
2022/01/03 11:55:59;;;;;;;;;;;;;;;9.07;96.75;97595.14;1678396;84;26246;-89
2022/01/03 11:58:48;;;;;;;;;;;;;;;9.07;96.98;97593.00;1686714;84;25349;-88
2022/01/03 12:03:54;;;;;;;;;;;;;;;9.04;97.33;97588.03;1661830;84;24894;-89
2022/01/03 12:06:25;;;;;;;;;;;;;;;9.01;97.47;97581.73;1683310;84;22034;-89
2022/01/03 12:08:56;;;;;;;;;;;;;;;8.99;97.58;97571.91;1682017;84;25967;-87
2022/01/03 12:11:24;;;;;;;;;;;;;;;9.01;97.75;97564.30;1690191;84;24525;-87
2022/01/03 12:13:57;;;;;;;;;;;;;;;9.08;97.99;97567.27;1687409;84;20199;-90
2022/01/03 12:16:43;;;;;;;;;;;;;;;9.15;98.19;97572.38;1691147;84;24644;-88
2022/01/03 12:19:12;;;;;;;;;;;;;;;9.20;98.37;97576.28;1644799;87;22684;-86
2022/01/03 12:21:50;;;;;;;;;;;;;;;9.24;98.43;97571.17;1645143;86;26163;-85
2022/01/03 12:24:31;;;;;;;;;;;;;;;9.29;98.46;97576.03;1623154;88;25072;-86
2022/01/03 12:27:17;;;;;;;;;;;;;;;9.33;98.52;97582.66;1626795;88;20261;-85
2022/01/03 12:29:57;;;;;;;;;;;;;;;9.37;98.52;97577.58;1626998;88;25203;-86
2022/01/03 12:32:27;;;;;;;;;;;;;;;9.41;98.47;97572.94;1664015;85;21958;-86
2022/01/03 12:35:15;;;;;;;;;;;;;;;9.42;98.30;97575.44;1653496;87;26109;-86
2022/01/03 12:37:48;;;;;;;;;;;;;;;9.42;98.05;97573.30;1649186;86;24477;-86
2022/01/03 12:40:18;;;;;;;;;;;;;;;9.41;97.74;97573.77;1649639;86;20298;-86
2022/01/03 12:45:33;;;;;;;;;;;;;;;9.42;97.14;97576.74;1617877;88;22047;-87
2022/01/03 12:48:18;;;;;;;;;;;;;;;9.46;96.93;97574.23;1625812;87;25962;-88
2022/01/03 12:50:45;;;;;;;;;;;;;;;9.47;96.66;97578.52;1659179;85;25351;-87
2022/01/03 12:53:26;;;;;;;;;;;;;;;9.53;96.40;97571.97;1624331;88;20312;-88
2022/01/03 12:55:53;;;;;;;;;;;;;;;9.57;96.20;97576.00;1663970;85;25224;-88
2022/01/03 12:58:21;;;;;;;;;;;;;;;9.60;95.94;97570.04;1642664;87;21975;-87
2022/01/03 13:00:52;;;;;;;;;;;;;;;9.62;95.64;97578.59;1649981;87;26176;-86
2022/01/03 13:03:26;;;;;;;;;;;;;;;9.67;95.32;97579.53;1626598;88;25406;-87
2022/01/03 13:06:10;;;;;;;;;;;;;;;9.69;94.95;97582.03;1624897;87;20254;-87
2022/01/03 13:08:44;;;;;;;;;;;;;;;9.72;94.57;97577.85;1624973;87;24600;-86
2022/01/03 13:11:11;;;;;;;;;;;;;;;9.76;94.16;97585.82;1657952;85;22649;-87
2022/01/03 13:13:38;;;;;;;;;;;;;;;9.78;93.73;97589.12;1659516;85;26268;-87
2022/01/03 13:16:24;;;;;;;;;;;;;;;9.77;93.29;97589.59;1645013;87;24522;-86
2022/01/03 13:18:51;;;;;;;;;;;;;;;9.80;92.82;97595.06;1645882;85;20284;-86
2022/01/03 13:21:18;;;;;;;;;;;;;;;9.82;92.37;97604.42;1662994;86;24658;-87
2022/01/03 13:23:54;;;;;;;;;;;;;;;9.84;92.04;97596.47;1608921;87;21996;-87
2022/01/03 13:26:22;;;;;;;;;;;;;;;9.85;91.80;97598.97;1608491;88;26693;-86